Time;durP1;ratioP1;P1;durP2;ratioP2;P2;SDS_P1;SDS_P2;PMS_P1;PMS_P2;Temp;Humidity;BMP_temperature;BMP_pressure;BME280_temperature;BME280_humidity;BME280_pressure;Samples;Min_cycle;Max_cycle;Signal;HPM_P1;HPM_P2
2022/10/07 00:02:13;;;;;;;71.35;21.58;;;;;;;8.42;83.87;98010.38;5044881;28;20049;-65
2022/10/07 00:04:44;;;;;;;13.70;4.60;;;;;;;8.69;84.18;98043.81;5043958;28;20052;-67
2022/10/07 00:07:13;;;;;;;5.32;2.30;;;;;;;8.53;84.62;98023.47;5043994;28;20131;-67
2022/10/07 00:09:40;;;;;;;22.23;6.10;;;;;;;8.19;84.99;97995.19;5045627;28;20081;-67
2022/10/07 00:12:06;;;;;;;9.85;4.03;;;;;;;8.19;88.03;98051.19;5045467;28;20500;-67
2022/10/07 00:14:33;;;;;;;9.95;3.90;;;;;;;8.04;88.20;97992.97;5045251;28;20223;-68
2022/10/07 00:17:00;;;;;;;10.05;3.25;;;;;;;8.27;88.16;98049.56;5045210;28;20057;-66
2022/10/07 00:19:27;;;;;;;19.30;6.13;;;;;;;8.22;87.53;98016.59;5044884;28;20048;-67
2022/10/07 00:21:53;;;;;;;7.72;2.42;;;;;;;8.53;86.81;98061.31;5044052;28;20437;-67
2022/10/07 00:24:20;;;;;;;10.38;2.20;;;;;;;8.47;85.92;98029.50;5045243;28;20492;-67
2022/10/07 00:26:46;;;;;;;7.55;2.25;;;;;;;7.85;85.87;97948.41;5043842;28;20057;-66
2022/10/07 00:29:13;;;;;;;4.20;2.35;;;;;;;8.00;87.43;97997.53;5045006;28;20080;-67
2022/10/07 00:31:40;;;;;;;4.07;2.30;;;;;;;7.85;87.70;97951.19;5043540;28;20110;-67
2022/10/07 00:34:07;;;;;;;2.55;1.77;;;;;;;8.47;87.32;98041.34;5044723;28;20107;-67
2022/10/07 00:36:36;;;;;;;8.50;3.17;;;;;;;7.63;90.90;98049.53;5044664;28;20072;-66
2022/10/07 00:39:06;;;;;;;6.97;2.90;;;;;;;7.74;91.67;98034.25;5043694;28;20053;-67
2022/10/07 00:41:36;;;;;;;9.40;2.78;;;;;;;7.79;91.06;98032.47;5043290;28;20128;-66
2022/10/07 00:44:31;;;;;;;8.27;2.97;;;;;;;7.17;95.73;98068.72;5044943;28;20134;-66
2022/10/07 00:47:06;;;;;;;12.68;4.45;;;;;;;7.41;94.49;98032.38;5036107;28;20142;-67
2022/10/07 00:49:40;;;;;;;5.35;2.30;;;;;;;7.52;92.75;98020.69;5044382;28;20600;-66
2022/10/07 00:52:07;;;;;;;7.75;2.72;;;;;;;7.02;94.70;97961.75;5044855;28;20071;-69
2022/10/07 00:54:35;;;;;;;5.88;2.30;;;;;;;6.99;93.56;97932.09;5043047;28;20135;-67
2022/10/07 00:57:02;;;;;;;6.22;2.40;;;;;;;7.84;92.60;98016.56;5044693;28;20131;-68
2022/10/07 00:59:29;;;;;;;6.38;2.60;;;;;;;7.94;91.44;98021.72;5043275;28;20144;-67
2022/10/07 01:01:55;;;;;;;5.72;2.38;;;;;;;7.51;93.54;98021.81;5044423;28;20096;-65
2022/10/07 01:04:22;;;;;;;6.75;2.40;;;;;;;7.77;92.86;98004.41;5044610;28;20045;-67
2022/10/07 01:06:49;;;;;;;5.53;2.15;;;;;;;7.86;91.64;98007.94;5044256;28;20049;-67
2022/10/07 01:09:16;;;;;;;5.30;1.90;;;;;;;6.95;92.27;97938.56;5044398;28;20132;-67
2022/10/07 01:11:58;;;;;;;5.18;1.77;;;;;;;7.00;93.85;97939.22;5042882;28;20093;-67
2022/10/07 01:14:53;;;;;;;4.97;2.22;;;;;;;7.68;92.22;98013.53;5042748;28;20144;-67
2022/10/07 01:17:58;;;;;;;3.80;2.40;;;;;;;7.18;94.37;98015.22;5044399;28;20053;-67
2022/10/07 01:20:28;;;;;;;5.57;2.60;;;;;;;7.22;95.49;98002.38;5042833;28;20509;-66
2022/10/07 01:23:10;;;;;;;3.55;2.30;;;;;;;7.42;94.43;98020.22;5044234;28;20475;-66
2022/10/07 01:25:42;;;;;;;6.57;2.53;;;;;;;6.86;97.38;98012.94;5043846;28;20108;-65
2022/10/07 01:28:15;;;;;;;6.68;3.25;;;;;;;7.14;96.99;98008.75;5044430;28;20115;-66
2022/10/07 01:30:48;;;;;;;4.77;2.43;;;;;;;6.25;96.61;97831.56;5042731;28;20996;-67
2022/10/07 01:33:19;;;;;;;4.28;1.98;;;;;;;6.99;95.84;98008.41;5042780;28;20314;-67
2022/10/07 01:35:49;;;;;;;11.25;2.50;;;;;;;7.64;94.20;98000.72;5044157;28;20080;-68
2022/10/07 01:38:21;;;;;;;40.22;7.32;;;;;;;7.70;93.11;98024.22;5044310;28;20092;-66
2022/10/07 01:41:03;;;;;;;49.58;8.65;;;;;;;7.29;92.03;97944.84;5042675;28;20505;-67
2022/10/07 01:43:31;;;;;;;4.30;2.45;;;;;;;7.65;94.36;97994.88;5042762;28;20507;-67
2022/10/07 01:45:58;;;;;;;3.95;1.52;;;;;;;7.56;93.25;97961.00;5043892;28;20045;-67
2022/10/07 01:48:25;;;;;;;5.22;1.80;;;;;;;7.82;92.94;98007.00;5044212;28;20060;-67
2022/10/07 01:50:53;;;;;;;2.25;1.60;;;;;;;7.51;92.56;97947.41;5042468;28;20490;-67
2022/10/07 01:53:49;;;;;;;3.72;1.70;;;;;;;7.27;91.97;97899.47;5044244;28;20092;-69
2022/10/07 01:56:34;;;;;;;4.10;2.47;;;;;;;7.97;91.82;98003.69;5043765;28;20111;-68
2022/10/07 01:59:16;;;;;;;3.95;2.00;;;;;;;7.91;90.33;97994.81;5043847;28;20056;-67
2022/10/07 02:01:55;;;;;;;5.88;3.15;;;;;;;7.85;90.96;97998.88;5044059;28;20056;-67
2022/10/07 02:04:37;;;;;;;6.50;4.18;;;;;;;7.87;91.62;97998.56;5043909;28;20049;-67
2022/10/07 02:07:15;;;;;;;46.38;10.57;;;;;;;7.49;92.14;98010.31;5043595;28;20122;-68
2022/10/07 02:09:54;;;;;;;52.38;11.65;;;;;;;7.15;94.21;97960.75;5043727;28;20107;-68
2022/10/07 02:12:26;;;;;;;32.47;6.97;;;;;;;6.65;93.91;97857.78;5044041;28;20543;-70
2022/10/07 02:15:02;;;;;;;7.70;2.85;;;;;;;6.06;92.24;97740.31;5043491;28;20118;-67
2022/10/07 02:17:36;;;;;;;22.52;5.57;;;;;;;6.80;95.10;97939.06;5042406;28;20134;-67
2022/10/07 02:20:07;;;;;;;15.00;4.65;;;;;;;7.43;94.45;97995.09;5042459;28;20138;-67
2022/10/07 02:22:34;;;;;;;29.33;5.97;;;;;;;7.27;93.95;97949.88;5044175;28;20084;-67
2022/10/07 02:25:02;;;;;;;26.58;5.50;;;;;;;7.50;93.01;97967.84;5043825;28;20073;-68
2022/10/07 02:27:33;;;;;;;18.48;4.30;;;;;;;7.10;94.42;97982.97;5047497;28;20084;-68
2022/10/07 02:30:08;;;;;;;20.83;5.88;;;;;;;6.88;97.26;97999.66;5046078;28;20056;-68
2022/10/07 02:32:38;;;;;;;11.27;3.92;;;;;;;6.82;95.85;97954.13;5047580;28;20507;-68
2022/10/07 02:35:12;;;;;;;9.43;3.47;;;;;;;6.97;95.24;98019.72;5047422;28;20442;-67
2022/10/07 02:37:43;;;;;;;10.07;3.80;;;;;;;6.47;96.42;97935.97;5047610;28;20051;-67
2022/10/07 02:40:10;;;;;;;8.15;4.60;;;;;;;6.09;99.29;97918.41;5047391;28;20049;-68
2022/10/07 02:42:52;;;;;;;13.07;4.10;;;;;;;5.89;99.73;97844.78;5045920;28;20056;-68
2022/10/07 02:45:41;;;;;;;15.43;4.82;;;;;;;5.99;100.00;97937.97;5045871;28;20053;-68
2022/10/07 02:48:17;;;;;;;7.97;3.03;;;;;;;6.55;100.00;98011.41;5046218;28;20656;-67
2022/10/07 02:50:50;;;;;;;9.95;4.00;;;;;;;6.75;100.00;98006.09;5047281;28;20562;-68
2022/10/07 02:53:20;;;;;;;8.75;4.57;;;;;;;6.91;99.68;98023.78;5047223;28;20969;-68
2022/10/07 02:55:49;;;;;;;8.77;4.80;;;;;;;6.66;99.24;97986.03;5045347;28;20535;-68
2022/10/07 02:58:17;;;;;;;6.20;4.03;;;;;;;6.97;100.00;98014.22;5047108;28;20091;-67
2022/10/07 03:00:49;;;;;;;10.23;5.50;;;;;;;7.10;99.10;98024.28;5047068;28;20111;-68
2022/10/07 03:03:16;;;;;;;10.70;7.30;;;;;;;7.20;98.39;98017.63;5047086;28;20057;-68
2022/10/07 03:05:43;;;;;;;15.93;9.20;;;;;;;6.74;97.36;97919.16;5046430;28;20482;-68
2022/10/07 03:08:10;;;;;;;13.13;8.30;;;;;;;6.32;96.14;97853.91;4862035;28;5001233;-67
2022/10/07 03:10:37;;;;;;;18.63;11.15;;;;;;;7.26;95.13;97973.06;5044742;28;20076;-67
2022/10/07 03:13:04;;;;;;;11.52;7.32;;;;;;;7.59;92.86;98026.53;5045201;28;20080;-67
2022/10/07 03:15:34;;;;;;;12.65;7.10;;;;;;;7.73;92.98;98024.38;5045029;28;20115;-67
2022/10/07 03:18:24;;;;;;;11.85;6.95;;;;;;;7.78;93.05;98011.56;5046859;28;20057;-68
2022/10/07 03:20:55;;;;;;;12.48;7.30;;;;;;;6.79;92.45;97858.41;5046208;28;20053;-67
2022/10/07 03:23:23;;;;;;;22.25;10.27;;;;;;;7.85;91.86;98026.47;5027726;28;20102;-67
2022/10/07 03:25:51;;;;;;;13.70;7.32;;;;;;;7.09;92.12;97909.72;5046215;28;20057;-66
2022/10/07 03:28:23;;;;;;;8.38;5.43;;;;;;;7.12;91.80;97914.56;5046868;28;20531;-67
2022/10/07 03:30:50;;;;;;;8.75;4.00;;;;;;;7.83;91.60;98022.41;5044673;28;20585;-67
2022/10/07 03:33:18;;;;;;;5.75;2.80;;;;;;;7.89;92.31;98023.88;5044833;28;20045;-67
2022/10/07 03:35:45;;;;;;;4.88;3.25;;;;;;;7.65;91.25;97985.78;5045908;28;20136;-67
2022/10/07 03:38:12;;;;;;;6.35;3.58;;;;;;;7.87;91.39;98056.47;5045497;28;20076;-67
2022/10/07 03:40:39;;;;;;;3.33;2.35;;;;;;;7.25;91.40;97935.63;5045777;28;20480;-67
2022/10/07 03:43:06;;;;;;;8.13;2.08;;;;;;;7.33;91.30;97962.34;5046590;28;20077;-68
2022/10/07 03:45:34;;;;;;;4.95;2.00;;;;;;;7.80;92.77;98031.34;5045339;28;20049;-68
2022/10/07 03:48:01;;;;;;;6.18;2.78;;;;;;;7.76;92.73;98022.13;5044006;28;20052;-68
2022/10/07 03:50:28;;;;;;;2.80;1.85;;;;;;;7.83;91.62;98030.69;5044735;28;20294;-66
2022/10/07 03:52:55;;;;;;;5.55;1.95;;;;;;;7.72;91.52;98020.00;5046214;28;20218;-67
2022/10/07 03:55:21;;;;;;;6.35;3.60;;;;;;;7.41;91.51;97969.78;5044723;28;20056;-66
2022/10/07 03:57:51;;;;;;;6.50;3.78;;;;;;;7.84;91.05;98037.84;5046339;28;20107;-67
2022/10/07 04:00:25;;;;;;;12.95;8.93;;;;;;;7.76;91.12;98049.69;5045562;28;20053;-67
2022/10/07 04:02:52;;;;;;;18.35;10.77;;;;;;;7.64;92.16;98023.59;5044257;28;20049;-67
2022/10/07 04:05:20;;;;;;;19.98;11.73;;;;;;;7.42;92.76;98023.78;5043295;28;20061;-68
2022/10/07 04:07:48;;;;;;;16.30;11.50;;;;;;;7.58;93.34;98037.88;5044031;28;20572;-68
2022/10/07 04:10:17;;;;;;;20.63;11.95;;;;;;;7.37;93.27;98012.94;5044166;28;20131;-67
2022/10/07 04:12:44;;;;;;;19.70;10.68;;;;;;;7.27;92.71;98002.22;5044014;28;20049;-67
2022/10/07 04:15:12;;;;;;;20.17;10.73;;;;;;;7.34;92.58;97983.28;5045065;28;20064;-67
2022/10/07 04:17:40;;;;;;;18.35;10.20;;;;;;;7.65;92.04;98018.88;5045475;28;20048;-67
2022/10/07 04:20:07;;;;;;;18.35;10.25;;;;;;;7.65;92.41;98021.63;5044992;28;20053;-67
2022/10/07 04:22:35;;;;;;;14.00;9.35;;;;;;;7.03;95.76;98046.00;5045295;28;20143;-67
2022/10/07 04:27:54;;;;;;;20.23;9.13;;;;;;;7.39;96.37;98016.19;5045485;28;20049;-67
2022/10/07 04:30:22;;;;;;;17.50;8.52;;;;;;;7.37;94.35;97990.06;5045018;28;20061;-67
2022/10/07 04:32:50;;;;;;;15.65;7.55;;;;;;;7.24;93.91;97967.06;5044067;28;20049;-67
2022/10/07 04:35:17;;;;;;;18.83;6.82;;;;;;;6.52;93.78;97847.75;5043768;28;20214;-68
2022/10/07 04:37:50;;;;;;;10.60;5.78;;;;;;;7.31;94.09;97974.84;5043903;28;20123;-67
2022/10/07 04:40:18;;;;;;;9.17;3.47;;;;;;;7.60;93.86;98021.81;5043692;28;20146;-68
2022/10/07 04:45:32;;;;;;;8.10;3.80;;;;;;;7.36;92.88;97981.00;5045146;28;20053;-68
2022/10/07 04:48:00;;;;;;;14.32;5.32;;;;;;;7.33;93.37;97984.38;5043382;28;20056;-67
2022/10/07 04:50:27;;;;;;;8.60;4.38;;;;;;;7.63;93.12;98013.69;5043823;28;20057;-67
2022/10/07 04:52:54;;;;;;;12.77;4.03;;;;;;;7.67;93.13;98020.19;5044266;28;20057;-68
2022/10/07 04:55:21;;;;;;;12.55;4.10;;;;;;;7.73;92.99;98020.81;5044732;28;20830;-67
2022/10/07 04:57:48;;;;;;;6.05;3.53;;;;;;;7.84;91.84;98015.75;5043666;28;20080;-67
2022/10/07 05:00:15;;;;;;;10.80;3.90;;;;;;;7.35;91.31;97949.06;5043359;28;20168;-67
2022/10/07 05:02:44;;;;;;;10.32;3.28;;;;;;;7.82;91.83;97998.72;5044965;28;20080;-67
2022/10/07 05:05:11;;;;;;;14.00;7.55;;;;;;;7.81;90.73;97978.59;5044555;28;20490;-67
2022/10/07 05:07:37;;;;;;;10.52;5.20;;;;;;;7.94;90.38;97971.25;5042909;28;20068;-67
2022/10/07 05:10:04;;;;;;;12.57;6.93;;;;;;;8.26;89.13;98015.63;5044341;28;20052;-67
2022/10/07 05:12:31;;;;;;;14.93;7.38;;;;;;;8.49;88.61;98028.03;5044153;28;20144;-67
2022/10/07 05:14:58;;;;;;;13.15;7.13;;;;;;;8.60;88.11;98017.44;5043019;28;20045;-66
2022/10/07 05:17:24;;;;;;;20.08;8.68;;;;;;;8.65;87.56;98033.78;5042709;28;20126;-66
2022/10/07 05:19:51;;;;;;;14.60;9.05;;;;;;;8.00;87.06;97903.75;5044130;28;20522;-67
2022/10/07 05:22:18;;;;;;;20.38;11.07;;;;;;;8.96;86.08;98048.06;5044104;28;20053;-66
2022/10/07 05:24:44;;;;;;;16.15;10.23;;;;;;;9.07;85.84;98052.06;5042937;28;20498;-66
2022/10/07 05:27:12;;;;;;;15.90;8.00;;;;;;;9.11;85.10;98044.69;5044243;28;20573;-66
2022/10/07 05:29:39;;;;;;;20.92;9.65;;;;;;;9.19;85.64;98024.47;5042936;28;20080;-66
2022/10/07 05:32:06;;;;;;;17.85;9.10;;;;;;;8.82;84.01;97948.06;5043056;28;20142;-66
2022/10/07 05:34:32;;;;;;;14.95;6.82;;;;;;;8.76;84.02;97932.81;5044182;28;20045;-67
2022/10/07 05:36:59;;;;;;;16.00;6.35;;;;;;;9.57;83.08;98063.84;5044420;28;20136;-68
2022/10/07 05:39:26;;;;;;;8.68;5.22;;;;;;;9.53;82.81;98029.69;5044127;28;20052;-67
2022/10/07 05:41:53;;;;;;;17.25;5.38;;;;;;;9.81;82.90;98033.50;5044097;28;20053;-67
2022/10/07 05:44:20;;;;;;;14.45;4.75;;;;;;;9.57;81.53;97958.75;5042905;28;20053;-66
2022/10/07 05:46:46;;;;;;;9.20;5.18;;;;;;;10.29;82.13;98035.63;5044289;28;20126;-67
2022/10/07 05:49:13;;;;;;;11.82;5.35;;;;;;;10.30;79.63;98010.34;5038783;28;20061;-63
2022/10/07 05:51:40;;;;;;;11.70;5.35;;;;;;;10.45;78.50;98017.97;5041836;28;20115;-63
2022/10/07 05:54:07;;;;;;;10.38;6.25;;;;;;;10.84;77.71;98046.13;5044277;28;20085;-70
2022/10/07 05:56:35;;;;;;;14.10;5.70;;;;;;;10.94;77.19;98034.56;5042204;28;20100;-69
2022/10/07 05:59:03;;;;;;;13.77;7.13;;;;;;;10.69;76.51;97956.19;5043826;28;20144;-65
2022/10/07 06:01:29;;;;;;;11.48;6.40;;;;;;;11.35;75.87;98037.03;5044840;28;20164;-66
2022/10/07 06:03:56;;;;;;;19.38;7.00;;;;;;;11.44;75.01;98051.56;5047798;28;20049;-65
2022/10/07 06:06:24;;;;;;;13.35;5.30;;;;;;;11.43;76.12;98041.63;5047480;28;20088;-66
2022/10/07 06:08:52;;;;;;;10.00;4.45;;;;;;;9.98;75.79;97831.28;5045059;28;20113;-67
2022/10/07 06:14:05;;;;;;;12.68;6.95;;;;;;;11.89;74.01;98030.72;5047161;28;20107;-72
2022/10/07 06:16:32;;;;;;;13.32;6.72;;;;;;;11.58;74.11;97955.66;5045452;28;20160;-70
2022/10/07 06:18:58;;;;;;;7.93;5.05;;;;;;;11.89;71.78;97966.03;5045041;28;20064;-65
2022/10/07 06:21:26;;;;;;;15.40;5.53;;;;;;;12.62;70.97;98033.00;5046857;28;20110;-63
2022/10/07 06:23:56;;;;;;;10.05;5.75;;;;;;;12.79;70.27;98019.53;5047015;28;20055;-65
2022/10/07 06:26:23;;;;;;;13.75;5.40;;;;;;;13.10;70.45;98022.28;5045454;28;20322;-65
2022/10/07 06:28:50;;;;;;;35.50;19.05;;;;;;;13.36;68.67;98027.25;5046864;28;20049;-61
2022/10/07 06:31:23;;;;;;;26.23;14.10;;;;;;;13.16;68.01;97953.28;5047366;28;20097;-65
2022/10/07 06:33:50;;;;;;;;;;;;;;;13.73;67.49;98019.28;5045702;28;20527;-64
2022/10/07 06:36:17;;;;;;;12.95;6.22;;;;;;;13.86;66.96;98020.75;5047774;28;20039;-65
2022/10/07 06:38:45;;;;;;;12.88;5.22;;;;;;;13.37;65.40;97887.72;5047014;28;20114;-68
2022/10/07 06:41:13;;;;;;;11.45;5.68;;;;;;;14.49;65.05;98016.38;5046664;28;20099;-65
2022/10/07 06:43:39;;;;;;;10.00;5.32;;;;;;;14.71;64.11;98030.31;5046688;28;20490;-71
2022/10/07 06:46:08;;;;;;;11.75;6.03;;;;;;;14.93;62.56;98014.72;5045547;28;20049;-72
2022/10/07 06:48:35;;;;;;;15.10;7.28;;;;;;;15.14;62.66;98020.63;5046984;28;20076;-69
2022/10/07 06:51:02;;;;;;;11.02;6.25;;;;;;;15.00;61.43;97964.63;5046368;28;20569;-68
2022/10/07 06:53:29;;;;;;;6.88;5.05;;;;;;;15.23;60.56;97982.06;5046371;28;20143;-62
2022/10/07 06:56:00;;;;;;;10.10;4.65;;;;;;;15.59;60.12;98020.50;5046381;28;20056;-68
2022/10/07 06:58:27;;;;;;;10.10;4.75;;;;;;;15.69;59.74;98003.06;5045271;28;20049;-60
2022/10/07 07:00:56;;;;;;;10.52;4.25;;;;;;;15.85;59.59;97989.69;5046951;28;20102;-73
2022/10/07 07:03:23;;;;;;;7.60;4.38;;;;;;;16.21;59.53;98008.47;5047038;28;20412;-61
2022/10/07 07:05:56;;;;;;;8.05;4.53;;;;;;;16.27;58.12;97969.75;5046815;28;20652;-69
2022/10/07 07:08:27;;;;;;;4.50;3.45;;;;;;;16.76;56.84;98016.97;5046357;28;20119;-60
2022/10/07 07:10:54;;;;;;;6.15;3.83;;;;;;;16.99;55.87;98020.38;5046176;28;20103;-66
2022/10/07 07:13:21;;;;;;;6.63;3.40;;;;;;;17.28;54.17;98011.78;5046794;28;20060;-66
2022/10/07 07:15:55;;;;;;;7.20;3.88;;;;;;;17.45;53.41;98011.09;5046453;28;20170;-65
2022/10/07 07:18:22;;;;;;;5.93;3.92;;;;;;;16.76;52.33;97877.88;5046523;28;20049;-64
2022/10/07 07:20:50;;;;;;;7.32;4.05;;;;;;;17.79;52.11;98006.06;5044995;28;20533;-62
2022/10/07 07:23:17;;;;;;;6.07;3.20;;;;;;;17.98;49.71;98000.94;5045932;28;21097;-66
2022/10/07 07:25:44;;;;;;;7.55;3.45;;;;;;;17.97;49.94;98001.34;5045784;28;20052;-64
2022/10/07 07:28:14;;;;;;;7.50;4.13;;;;;;;17.52;50.37;97931.88;5044631;28;20079;-62
2022/10/07 07:30:41;;;;;;;3.80;2.92;;;;;;;17.78;49.81;97923.97;5044516;28;20083;-65
2022/10/07 07:33:08;;;;;;;7.97;4.03;;;;;;;17.06;48.30;97835.63;5046505;28;20056;-64
2022/10/07 07:35:38;;;;;;;7.22;3.50;;;;;;;18.41;49.54;97968.22;5046213;28;20056;-64
2022/10/07 07:38:05;;;;;;;5.55;2.65;;;;;;;18.56;46.76;97986.66;5046544;28;20152;-58
2022/10/07 07:40:36;;;;;;;9.50;2.85;;;;;;;18.07;46.12;97899.59;5045803;28;20080;-62
2022/10/07 07:43:04;;;;;;;7.60;3.15;;;;;;;18.97;45.38;97993.47;5046299;28;20049;-62
2022/10/07 07:45:31;;;;;;;4.05;2.58;;;;;;;18.91;45.65;97986.66;5045409;28;20903;-62
2022/10/07 07:47:59;;;;;;;6.13;2.75;;;;;;;19.00;44.85;97984.25;5046251;28;20131;-62
2022/10/07 07:50:26;;;;;;;5.93;2.78;;;;;;;19.11;44.92;97996.25;5045681;28;20136;-60
2022/10/07 07:52:53;;;;;;;7.20;3.05;;;;;;;19.12;44.41;97988.66;5045355;28;20392;-66
2022/10/07 07:55:23;;;;;;;6.05;2.90;;;;;;;18.26;44.20;97873.97;5045947;28;20056;-63
2022/10/07 07:57:49;;;;;;;8.98;2.85;;;;;;;19.05;43.43;98000.69;5045911;28;20471;-66
2022/10/07 08:00:17;;;;;;;10.05;3.00;;;;;;;18.82;43.48;97963.81;5045338;28;20569;-66
2022/10/07 08:02:44;;;;;;;5.03;2.72;;;;;;;19.27;43.89;97988.22;5045307;28;20160;-64
2022/10/07 08:05:11;;;;;;;3.97;2.83;;;;;;;19.02;43.45;97959.38;5045261;28;20525;-64
2022/10/07 08:07:37;;;;;;;6.38;2.90;;;;;;;19.37;43.03;97986.63;5044271;28;20106;-64
2022/10/07 08:10:04;;;;;;;7.22;3.13;;;;;;;19.45;43.39;97994.66;5045496;28;20106;-65
2022/10/07 08:12:31;;;;;;;7.30;2.67;;;;;;;19.45;42.62;97980.59;5043681;28;20092;-65
2022/10/07 08:14:58;;;;;;;5.03;2.63;;;;;;;19.23;41.99;97964.97;5045499;28;20045;-63
2022/10/07 08:17:25;;;;;;;8.65;2.33;;;;;;;19.18;42.47;97979.41;5045334;28;20045;-63
2022/10/07 08:19:55;;;;;;;3.28;2.60;;;;;;;19.02;41.32;97928.47;5043649;28;20110;-65
2022/10/07 08:22:21;;;;;;;4.65;2.42;;;;;;;19.41;41.15;97953.72;5043655;28;20500;-64
2022/10/07 08:24:48;;;;;;;5.88;2.40;;;;;;;19.31;41.24;97932.88;5042789;28;20111;-63
2022/10/07 08:27:15;;;;;;;5.25;2.60;;;;;;;19.65;41.56;97977.31;5043286;28;20076;-66
2022/10/07 08:29:41;;;;;;;4.45;2.53;;;;;;;19.62;40.62;97970.47;5045086;28;20094;-65
2022/10/07 08:32:08;;;;;;;6.72;3.15;;;;;;;19.80;41.02;97970.41;5044987;28;20535;-64
2022/10/07 08:34:35;;;;;;;6.13;2.95;;;;;;;19.90;40.54;97975.97;5045021;28;20080;-63
2022/10/07 08:37:02;;;;;;;7.90;4.30;;;;;;;19.49;40.71;97911.09;5044932;28;20065;-65
2022/10/07 08:39:30;;;;;;;4.20;2.38;;;;;;;19.85;39.64;97939.06;5043416;28;20114;-64
2022/10/07 08:42:22;;;;;;;8.63;4.50;;;;;;;19.54;39.92;97896.63;5044497;28;20503;-64
2022/10/07 08:44:50;;;;;;;6.38;3.03;;;;;;;20.14;39.64;97957.44;5043406;28;20404;-64
2022/10/07 08:47:29;;;;;;;8.45;3.47;;;;;;;19.92;40.14;97967.94;5044612;28;20049;-65
2022/10/07 08:50:06;;;;;;;14.25;7.80;;;;;;;19.89;40.00;97965.16;5044435;28;20055;-64
2022/10/07 08:52:43;;;;;;;4.32;2.50;;;;;;;20.12;39.38;97957.78;5044374;28;20569;-65
2022/10/07 08:55:15;;;;;;;4.28;3.05;;;;;;;20.23;39.09;97960.56;5044469;28;20049;-66
2022/10/07 08:57:51;;;;;;;6.65;2.92;;;;;;;20.17;39.40;97970.69;5043079;28;20131;-67
2022/10/07 09:00:23;;;;;;;4.80;3.15;;;;;;;20.05;38.98;97920.47;5044573;28;20061;-59
2022/10/07 09:03:05;;;;;;;7.82;4.35;;;;;;;19.90;38.70;97876.78;5042950;28;20051;-64
2022/10/07 09:05:42;;;;;;;8.18;4.28;;;;;;;20.18;38.99;97958.19;5044491;28;20044;-65
2022/10/07 09:08:27;;;;;;;5.40;2.22;;;;;;;20.41;38.61;97962.06;5044238;28;20111;-64
2022/10/07 09:10:58;;;;;;;7.65;4.78;;;;;;;20.47;38.92;97956.81;5042786;28;20350;-63
2022/10/07 09:13:36;;;;;;;4.95;3.15;;;;;;;20.59;38.15;97959.13;5044229;28;20135;-66
2022/10/07 09:16:08;;;;;;;3.85;2.30;;;;;;;20.08;36.96;97914.00;5044256;28;20084;-64
2022/10/07 09:19:11;;;;;;;4.70;2.88;;;;;;;19.84;35.89;97836.22;5044149;28;20049;-72
2022/10/07 09:21:50;;;;;;;3.97;2.50;;;;;;;20.36;36.30;97900.56;5032044;28;20084;-68
2022/10/07 09:24:23;;;;;;;4.07;2.17;;;;;;;20.72;36.16;97927.22;5044039;28;20088;-71
2022/10/07 09:26:54;;;;;;;;;;;;;;;20.70;35.65;97934.50;5042703;28;20140;-69
2022/10/07 09:29:25;;;;;;;6.28;2.17;;;;;;;20.53;37.17;97918.53;5043854;28;20027;-71
2022/10/07 09:31:52;;;;;;;3.05;2.00;;;;;;;20.35;37.34;97873.66;5043788;28;20500;-69
2022/10/07 09:34:26;;;;;;;8.75;3.00;;;;;;;19.30;36.15;97751.41;5043965;28;20052;-72
2022/10/07 09:37:18;;;;;;;11.60;4.25;;;;;;;19.91;36.39;97841.78;5042163;28;20682;-67
2022/10/07 09:39:47;;;;;;;4.95;2.88;;;;;;;20.68;36.30;97905.94;5042827;28;20095;-74
2022/10/07 09:42:42;;;;;;;4.82;2.45;;;;;;;20.88;35.46;97906.97;5043866;28;20079;-66
2022/10/07 09:45:23;;;;;;;4.63;2.40;;;;;;;20.36;35.40;97891.34;5043002;28;20065;-68
2022/10/07 09:47:52;;;;;;;2.28;2.00;;;;;;;20.46;35.26;97904.50;5044061;28;20139;-63
2022/10/07 09:50:37;;;;;;;4.10;2.70;;;;;;;20.34;35.83;97905.84;5043855;28;20494;-65
2022/10/07 09:53:19;;;;;;;4.60;2.80;;;;;;;19.73;36.30;97768.03;5041906;28;20041;-64
2022/10/07 09:55:46;;;;;;;3.05;2.30;;;;;;;19.69;35.73;97761.63;5042603;28;20056;-64
2022/10/07 09:58:27;;;;;;;6.00;2.75;;;;;;;20.37;34.91;97811.31;5044002;28;20080;-64
2022/10/07 10:00:59;;;;;;;2.75;2.10;;;;;;;20.83;34.15;97862.34;5043983;28;20079;-68
2022/10/07 10:03:35;;;;;;;6.18;2.70;;;;;;;21.01;35.00;97887.56;5043749;28;20053;-69
2022/10/07 10:06:07;;;;;;;6.30;2.60;;;;;;;20.89;34.57;97891.66;5043651;28;20049;-65
2022/10/07 10:08:40;;;;;;;13.25;5.45;;;;;;;21.16;34.45;97847.53;5043826;28;20589;-67
2022/10/07 10:11:19;;;;;;;3.78;2.00;;;;;;;21.53;33.39;97872.81;5041790;28;20061;-67
2022/10/07 10:13:49;;;;;;;3.80;2.60;;;;;;;21.50;32.82;97865.22;5043414;28;20049;-67
2022/10/07 10:16:33;;;;;;;4.47;2.75;;;;;;;21.70;32.95;97874.63;5043282;28;20087;-78
2022/10/07 10:19:02;;;;;;;2.72;2.50;;;;;;;21.77;33.09;97862.47;5042373;28;20060;-73
2022/10/07 10:21:34;;;;;;;3.35;2.47;;;;;;;21.59;32.18;97862.66;5043177;28;20045;-66
2022/10/07 10:24:15;;;;;;;4.55;2.10;;;;;;;21.77;32.42;97857.63;5043710;28;20082;-64
2022/10/07 10:27:04;;;;;;;4.85;2.40;;;;;;;21.65;33.28;97849.72;5043384;28;20123;-69
2022/10/07 10:29:49;;;;;;;6.85;3.80;;;;;;;21.97;33.76;97850.06;5043207;28;20594;-67
2022/10/07 10:32:40;;;;;;;5.43;3.03;;;;;;;21.72;32.78;97815.75;5042906;28;20103;-67
2022/10/07 10:35:16;;;;;;;5.68;3.10;;;;;;;21.84;32.65;97832.16;5043496;28;20107;-65
2022/10/07 10:38:01;;;;;;;8.18;2.95;;;;;;;21.52;33.18;97811.22;5043760;28;20135;-66
2022/10/07 10:40:31;;;;;;;5.95;2.35;;;;;;;21.30;33.70;97793.81;5041519;28;20388;-69
2022/10/07 10:43:54;;;;;;;3.47;2.13;;;;;;;21.56;33.14;97824.03;5043130;28;20499;-66
2022/10/07 10:46:36;;;;;;;3.03;2.15;;;;;;;21.37;33.25;97821.88;5001107;28;20240;-65
2022/10/07 10:49:15;;;;;;;3.50;2.55;;;;;;;21.83;33.16;97819.25;4987939;28;20315;-65
2022/10/07 10:52:01;;;;;;;3.10;2.58;;;;;;;22.13;31.96;97819.19;5018822;28;20136;-75
2022/10/07 10:54:54;;;;;;;5.80;2.40;;;;;;;21.53;32.90;97706.47;5026936;28;20754;-62
2022/10/07 10:57:43;;;;;;;9.10;4.13;;;;;;;22.15;33.64;97815.94;5025647;28;20057;-65
2022/10/07 11:00:18;;;;;;;7.93;3.90;;;;;;;22.11;32.63;97782.13;5026958;28;20135;-66
2022/10/07 11:02:59;;;;;;;6.53;4.50;;;;;;;22.30;32.03;97800.38;5027013;28;20151;-69
2022/10/07 11:05:32;;;;;;;10.68;3.67;;;;;;;22.44;32.37;97805.78;5026899;28;20486;-65
2022/10/07 11:08:09;;;;;;;3.03;2.25;;;;;;;21.81;32.58;97807.63;5025266;28;20488;-65
2022/10/07 11:10:43;;;;;;;7.00;3.03;;;;;;;22.17;32.83;97802.19;5026576;28;20058;-64
2022/10/07 11:13:14;;;;;;;3.05;2.58;;;;;;;22.19;33.24;97811.81;5027190;28;20057;-64
2022/10/07 11:15:50;;;;;;;5.07;2.92;;;;;;;21.48;33.74;97782.28;5026656;28;20132;-68
2022/10/07 11:18:35;;;;;;;5.22;2.35;;;;;;;21.83;33.66;97776.94;5024839;28;20503;-62
2022/10/07 11:21:08;;;;;;;5.22;2.90;;;;;;;22.23;33.03;97795.63;5026166;28;20058;-66
2022/10/07 11:23:53;;;;;;;9.77;4.68;;;;;;;21.54;32.44;97696.81;5044531;28;20118;-66
2022/10/07 11:26:49;;;;;;;3.20;2.47;;;;;;;22.22;32.56;97799.66;5044378;28;20609;-66
2022/10/07 11:29:31;;;;;;;5.45;2.60;;;;;;;22.36;32.33;97810.75;5044371;28;20084;-68
2022/10/07 11:32:07;;;;;;;4.95;2.60;;;;;;;20.20;31.88;97477.47;5045843;28;20092;-69
2022/10/07 11:34:46;;;;;;;6.20;2.92;;;;;;;21.91;33.31;97795.34;5044470;28;20084;-67
2022/10/07 11:37:44;;;;;;;8.48;3.00;;;;;;;21.90;32.82;97795.78;5046000;28;20401;-69
2022/10/07 11:40:10;;;;;;;6.00;2.83;;;;;;;21.05;32.81;97624.28;5045435;28;20590;-67
2022/10/07 11:42:45;;;;;;;3.72;2.53;;;;;;;21.51;33.16;97731.50;5046221;28;20087;-67
2022/10/07 11:45:21;;;;;;;6.60;3.03;;;;;;;21.14;33.13;97734.41;5045427;28;20053;-65
2022/10/07 11:48:06;;;;;;;5.13;2.92;;;;;;;21.79;33.82;97795.94;5044217;28;20056;-69
2022/10/07 11:50:46;;;;;;;6.60;2.70;;;;;;;21.20;33.39;97687.63;5045669;28;20578;-72
2022/10/07 11:53:24;;;;;;;2.90;2.50;;;;;;;20.85;33.07;97621.28;5045951;28;20091;-68
2022/10/07 11:56:01;;;;;;;10.30;4.90;;;;;;;21.90;33.54;97784.50;5045734;28;20306;-65
2022/10/07 11:58:35;;;;;;;11.82;3.40;;;;;;;21.20;34.18;97732.72;5043652;28;20053;-70
2022/10/07 12:01:39;;;;;;;5.18;2.90;;;;;;;21.67;33.77;97776.75;5044324;28;20099;-70
2022/10/07 12:04:34;;;;;;;5.53;2.25;;;;;;;21.79;33.79;97781.84;5045616;28;20136;-67
2022/10/07 12:07:38;;;;;;;4.78;2.60;;;;;;;20.27;33.93;97533.63;5044024;28;20503;-69